Terminal Aerodrome Forecast
Issued by NWS

Home | Current Version | Previous Version | Text Only | Print | Product List | Glossary On
Versions: 1 2 3 4 5 6 7 8 9 10 11 12 13 14 15 16 17
918
FTAK31 PAJN 181136
TAFASI
TAF
PASI 181136Z 1812/1912 34005KT P6SM -RA BKN070 OVC090
     FM181500 04005KT P6SM -RA BKN040 OVC060
     FM182100 08010KT 5SM -RA BR BKN020 OVC040
     FM190300 12012KT 4SM -SHRA BR BKN015 OVC030
     FM190800 24010KT 5SM -SHRA BR OVC015=

USA.gov is the U.S. government's official web portal to all federal, state and local government web resources and services.